createdAt,value
2022-11-14T00:01:30.893Z,91.90
2022-11-14T00:04:34.881Z,91.80
2022-11-14T00:07:55.999Z,92.00
2022-11-14T00:11:00.290Z,91.90
2022-11-14T00:14:05.020Z,91.90
2022-11-14T00:17:13.362Z,92.00
2022-11-14T00:20:25.958Z,92.00
2022-11-14T00:23:30.321Z,91.80
2022-11-14T00:26:36.118Z,91.80
2022-11-14T00:29:40.898Z,91.70
2022-11-14T00:32:45.034Z,91.80
2022-11-14T00:35:56.422Z,91.70
2022-11-14T00:39:18.878Z,91.90
2022-11-14T00:42:25.859Z,91.90
2022-11-14T00:45:30.224Z,91.90
2022-11-14T00:48:36.918Z,91.80
2022-11-14T00:51:41.154Z,91.80
2022-11-14T00:54:45.752Z,91.90
2022-11-14T00:57:50.433Z,91.90
2022-11-14T01:00:57.514Z,91.80
2022-11-14T01:04:02.443Z,91.80
2022-11-14T01:07:06.745Z,91.80
2022-11-14T01:10:10.995Z,91.80
2022-11-14T01:13:17.501Z,91.70
2022-11-14T01:16:22.003Z,91.80
2022-11-14T01:19:26.686Z,91.90
2022-11-14T01:22:31.148Z,91.90
2022-11-14T01:25:37.233Z,91.80
2022-11-14T01:28:42.067Z,91.80
2022-11-14T01:31:46.515Z,91.80
2022-11-14T01:34:50.863Z,92.00
2022-11-14T01:37:55.322Z,92.00
2022-11-14T01:41:00.357Z,92.00
2022-11-14T01:44:37.874Z,91.90
2022-11-14T01:47:42.060Z,92.00
2022-11-14T01:50:47.845Z,91.80
2022-11-14T01:53:58.700Z,92.00
2022-11-14T01:57:04.811Z,92.30
2022-11-14T02:00:12.150Z,92.00
2022-11-14T02:03:17.192Z,92.00
2022-11-14T02:06:23.791Z,92.00
2022-11-14T02:09:38.898Z,92.00
2022-11-14T02:12:44.614Z,92.00
2022-11-14T02:15:49.039Z,92.10
2022-11-14T02:18:53.724Z,92.00
2022-11-14T02:21:57.947Z,92.00
2022-11-14T02:25:02.944Z,91.90
2022-11-14T02:28:09.454Z,92.00
2022-11-14T02:31:18.628Z,92.00
2022-11-14T02:34:22.901Z,92.00
2022-11-14T02:37:27.211Z,91.90
2022-11-14T02:40:34.835Z,92.00
2022-11-14T02:43:39.235Z,92.00
2022-11-14T02:46:43.629Z,92.10
2022-11-14T02:49:47.985Z,92.10
2022-11-14T02:52:54.061Z,92.00
2022-11-14T02:55:58.833Z,92.10
2022-11-14T02:59:02.845Z,92.10
2022-11-14T03:02:07.426Z,92.10
2022-11-14T03:05:11.685Z,92.20
2022-11-14T03:08:15.937Z,92.20
2022-11-14T03:11:20.505Z,92.20
2022-11-14T03:14:29.907Z,92.20
2022-11-14T03:17:34.674Z,92.30
2022-11-14T03:20:39.030Z,92.30
2022-11-14T03:23:43.518Z,92.30
2022-11-14T03:26:47.498Z,92.40
2022-11-14T03:29:52.052Z,92.40
2022-11-14T03:32:57.785Z,92.50
2022-11-14T03:36:02.870Z,92.50
2022-11-14T03:39:07.172Z,92.50
2022-11-14T03:42:11.457Z,92.40
2022-11-14T03:45:21.723Z,92.50
2022-11-14T03:48:26.732Z,92.40
2022-11-14T03:51:31.924Z,92.50
2022-11-14T03:54:36.189Z,92.60
2022-11-14T03:57:40.747Z,92.90
2022-11-14T04:00:45.160Z,92.50
2022-11-14T04:03:49.909Z,92.50
2022-11-14T04:06:54.253Z,92.50
2022-11-14T04:09:58.468Z,92.40
2022-11-14T04:13:04.887Z,92.50
2022-11-14T04:16:08.867Z,92.50
2022-11-14T04:19:13.398Z,92.40
2022-11-14T04:22:20.298Z,92.30
2022-11-14T04:25:30.920Z,92.50
2022-11-14T04:28:35.121Z,92.50
2022-11-14T04:31:39.733Z,92.50
2022-11-14T04:34:44.143Z,92.50
2022-11-14T04:37:48.524Z,92.30
2022-11-14T04:40:53.562Z,92.40
2022-11-14T04:43:57.897Z,92.50
2022-11-14T04:47:02.268Z,92.50
2022-11-14T04:50:07.166Z,92.50
2022-11-14T04:53:11.549Z,92.50
2022-11-14T04:56:17.406Z,92.60
2022-11-14T04:59:24.308Z,92.60
2022-11-14T05:02:31.746Z,92.60
2022-11-14T05:05:40.682Z,92.70
2022-11-14T05:08:45.906Z,92.70
2022-11-14T05:11:50.154Z,92.70
2022-11-14T05:14:54.450Z,92.80
2022-11-14T05:17:58.978Z,92.90
2022-11-14T05:21:03.986Z,92.90
2022-11-14T05:24:33.105Z,93.00
2022-11-14T05:27:37.558Z,92.90
2022-11-14T05:30:42.188Z,92.90
2022-11-14T05:33:49.293Z,92.70
2022-11-14T05:36:53.750Z,92.90
2022-11-14T05:39:57.818Z,92.90
2022-11-14T05:43:04.862Z,93.00
2022-11-14T05:46:12.474Z,92.90
2022-11-14T05:49:22.072Z,92.90
2022-11-14T05:52:27.867Z,92.80
2022-11-14T05:55:32.222Z,92.80
2022-11-14T05:58:36.662Z,92.90
2022-11-14T06:01:43.087Z,92.80
2022-11-14T06:04:47.669Z,92.80
2022-11-14T06:07:58.828Z,92.60
2022-11-14T06:11:05.241Z,92.70
2022-11-14T06:14:10.907Z,92.70
2022-11-14T06:17:15.450Z,93.00
2022-11-14T06:20:20.109Z,92.90
2022-11-14T06:23:25.061Z,92.80
2022-11-14T06:26:31.595Z,92.80
2022-11-14T06:29:36.319Z,92.90
2022-11-14T06:32:40.478Z,92.80
2022-11-14T06:35:48.324Z,92.80
2022-11-14T06:38:52.961Z,92.70
2022-11-14T06:41:56.914Z,92.70
2022-11-14T06:45:01.406Z,92.70
2022-11-14T06:48:05.986Z,92.70
2022-11-14T06:51:12.410Z,92.80
2022-11-14T06:54:17.072Z,92.80
2022-11-14T06:57:21.379Z,92.80
2022-11-14T07:00:25.639Z,92.90
2022-11-14T07:03:30.358Z,92.90
2022-11-14T07:06:34.928Z,93.00
2022-11-14T07:09:39.506Z,93.30
2022-11-14T07:12:43.635Z,93.00
2022-11-14T07:15:54.642Z,93.10
2022-11-14T07:19:00.298Z,93.20
2022-11-14T07:22:04.603Z,93.20
2022-11-14T07:25:09.283Z,93.30
2022-11-14T07:28:16.410Z,93.30
2022-11-14T07:31:21.486Z,93.30
2022-11-14T07:34:25.653Z,93.40
2022-11-14T07:37:30.139Z,93.40
2022-11-14T07:40:34.703Z,93.50
2022-11-14T07:43:39.900Z,93.50
2022-11-14T07:46:47.162Z,93.60
2022-11-14T07:49:51.352Z,93.60
2022-11-14T07:52:57.682Z,93.60
2022-11-14T07:56:05.826Z,93.70
2022-11-14T07:59:10.083Z,93.80
2022-11-14T08:02:15.178Z,93.70
2022-11-14T08:05:21.649Z,93.80
2022-11-14T08:08:25.721Z,93.90
2022-11-14T08:11:48.281Z,93.90
2022-11-14T08:14:52.591Z,93.90
2022-11-14T08:18:03.870Z,93.90
2022-11-14T08:21:08.023Z,94.00
2022-11-14T08:24:12.033Z,93.90
2022-11-14T08:27:16.630Z,94.00
2022-11-14T08:30:20.974Z,94.00
2022-11-14T08:33:25.483Z,93.90
2022-11-14T08:36:30.644Z,94.00
2022-11-14T08:39:34.943Z,94.10
2022-11-14T08:42:39.965Z,94.20
2022-11-14T08:45:44.350Z,94.10
2022-11-14T08:48:49.354Z,94.10
2022-11-14T08:51:53.865Z,94.20
2022-11-14T08:54:57.918Z,94.10
2022-11-14T08:58:05.243Z,94.30
2022-11-14T09:01:10.350Z,94.30
2022-11-14T09:04:14.901Z,94.30
2022-11-14T09:07:19.337Z,94.20
2022-11-14T09:10:23.563Z,94.20
2022-11-14T09:13:28.459Z,94.10
2022-11-14T09:16:33.926Z,94.20
2022-11-14T09:19:41.066Z,94.20
2022-11-14T09:22:48.225Z,94.10
2022-11-14T09:25:54.746Z,94.20
2022-11-14T09:29:00.535Z,94.20
2022-11-14T09:32:04.958Z,94.20
2022-11-14T09:35:09.283Z,94.20
2022-11-14T09:38:13.481Z,94.20
2022-11-14T09:41:55.107Z,94.30
2022-11-14T09:45:12.166Z,94.30
2022-11-14T09:48:21.136Z,94.30
2022-11-14T09:51:30.270Z,94.30
2022-11-14T09:54:55.355Z,94.30
2022-11-14T09:58:06.579Z,94.30
2022-11-14T10:01:23.119Z,94.40
2022-11-14T10:04:58.863Z,94.40
2022-11-14T10:08:22.980Z,94.30
2022-11-14T10:11:43.604Z,94.40
2022-11-14T10:15:06.618Z,94.30
2022-11-14T10:18:36.679Z,94.30
2022-11-14T10:21:53.448Z,94.50
2022-11-14T10:25:07.711Z,94.30
2022-11-14T10:28:32.328Z,94.20
2022-11-14T10:32:07.431Z,94.30
2022-11-14T10:35:37.965Z,94.20
2022-11-14T10:39:01.086Z,94.20
2022-11-14T10:42:13.966Z,94.40
2022-11-14T10:45:36.081Z,94.20
2022-11-14T10:48:44.452Z,94.30
2022-11-14T10:51:57.280Z,94.40
2022-11-14T10:55:08.327Z,94.80
2022-11-14T10:58:14.798Z,95.20
2022-11-14T11:01:51.107Z,94.80
2022-11-14T11:05:12.789Z,93.70
2022-11-14T11:08:44.355Z,93.40
2022-11-14T11:11:57.842Z,93.30
2022-11-14T11:15:22.250Z,93.30
2022-11-14T11:18:51.130Z,92.90
2022-11-14T11:21:55.402Z,93.10
2022-11-14T11:24:59.474Z,91.90
2022-11-14T11:28:11.434Z,91.00
2022-11-14T11:31:16.348Z,90.30
2022-11-14T11:34:47.543Z,89.00
2022-11-14T11:38:00.107Z,83.40
2022-11-14T11:42:06.209Z,81.30
2022-11-14T11:44:58.693Z,76.70
2022-11-14T11:48:23.234Z,74.00
2022-11-14T11:51:28.526Z,68.10
2022-11-14T11:55:13.122Z,63.20
2022-11-14T11:58:29.614Z,58.20
2022-11-14T12:01:33.840Z,53.80
2022-11-14T12:04:38.150Z,51.60
2022-11-14T12:07:57.195Z,48.10
2022-11-14T12:11:04.201Z,45.40
2022-11-14T12:14:48.485Z,42.10
2022-11-14T12:18:23.703Z,38.90
2022-11-14T12:22:07.826Z,37.50
2022-11-14T12:25:43.981Z,35.60
2022-11-14T12:28:58.978Z,33.10
2022-11-14T12:32:07.782Z,34.20
2022-11-14T12:35:23.910Z,33.60
2022-11-14T12:38:35.895Z,33.60
2022-11-14T12:41:41.523Z,32.20
2022-11-14T12:44:46.851Z,32.20
2022-11-14T12:48:25.541Z,31.30
2022-11-14T12:51:50.267Z,28.90
2022-11-14T12:54:57.580Z,31.00
2022-11-14T12:58:04.540Z,31.30
2022-11-14T13:01:25.029Z,31.10
2022-11-14T13:04:46.157Z,30.50
2022-11-14T13:08:03.497Z,30.00
2022-11-14T13:11:53.581Z,30.00
2022-11-14T13:15:36.655Z,28.90
2022-11-14T13:19:12.957Z,29.10
2022-11-14T13:22:20.576Z,28.80
2022-11-14T13:25:24.822Z,28.70
2022-11-14T13:28:38.475Z,28.70
2022-11-14T13:31:46.995Z,28.60
2022-11-14T13:35:03.919Z,28.20
2022-11-14T13:38:35.784Z,28.50
2022-11-14T13:42:14.043Z,28.40
2022-11-14T13:45:41.936Z,29.20
2022-11-14T13:49:32.709Z,29.10
2022-11-14T13:52:46.175Z,28.80
2022-11-14T13:56:14.548Z,29.20
2022-11-14T13:59:30.487Z,29.10
2022-11-14T14:03:10.336Z,29.10
2022-11-14T14:06:41.761Z,29.40
2022-11-14T14:09:58.335Z,29.60
2022-11-14T14:13:33.925Z,29.50
2022-11-14T14:16:58.623Z,29.40
2022-11-14T14:20:30.745Z,29.40
2022-11-14T14:23:46.378Z,28.90
2022-11-14T14:27:11.378Z,29.20
2022-11-14T14:30:19.598Z,30.20
2022-11-14T14:33:26.496Z,30.30
2022-11-14T14:36:31.772Z,30.50
2022-11-14T14:39:35.974Z,30.60
2022-11-14T14:42:45.350Z,30.40
2022-11-14T14:45:53.297Z,30.60
2022-11-14T14:49:01.610Z,30.30
2022-11-14T14:52:38.148Z,30.70
2022-11-14T14:55:41.992Z,31.40
2022-11-14T14:58:46.028Z,31.90
2022-11-14T15:01:50.517Z,32.00
2022-11-14T15:05:01.638Z,32.40
2022-11-14T15:08:05.923Z,33.20
2022-11-14T15:11:10.146Z,34.00
2022-11-14T15:14:19.326Z,35.50
2022-11-14T15:17:24.206Z,36.80
2022-11-14T15:20:29.772Z,38.60
2022-11-14T15:23:33.868Z,40.10
2022-11-14T15:26:38.627Z,42.40
2022-11-14T15:29:56.269Z,44.80
2022-11-14T15:33:25.910Z,47.10
2022-11-14T15:36:30.193Z,49.50
2022-11-14T15:39:35.031Z,51.20
2022-11-14T15:42:39.367Z,52.20
2022-11-14T15:45:43.801Z,53.30
2022-11-14T15:48:48.107Z,55.00
2022-11-14T15:51:58.246Z,56.50
2022-11-14T15:55:03.644Z,58.10
2022-11-14T16:01:39.054Z,60.30
2022-11-14T16:04:47.573Z,62.50
2022-11-14T16:07:52.602Z,64.00
2022-11-14T16:10:56.879Z,65.50
2022-11-14T16:14:01.314Z,66.40
2022-11-14T16:17:16.798Z,67.20
2022-11-14T16:20:26.786Z,68.30
2022-11-14T16:23:31.347Z,69.10
2022-11-14T16:26:38.718Z,70.70
2022-11-14T16:29:43.157Z,70.80
2022-11-14T16:32:48.722Z,71.60
2022-11-14T16:35:52.895Z,72.20
2022-11-14T16:39:04.126Z,73.00
2022-11-14T16:42:11.169Z,73.70
2022-11-14T16:45:17.144Z,74.40
2022-11-14T16:48:22.461Z,75.20
2022-11-14T16:51:47.939Z,75.50
2022-11-14T16:54:51.593Z,76.20
2022-11-14T16:57:56.194Z,77.20
2022-11-14T17:01:00.716Z,78.30
2022-11-14T17:04:05.589Z,78.40
2022-11-14T17:07:10.729Z,79.00
2022-11-14T17:10:14.678Z,79.30
2022-11-14T17:13:24.289Z,79.80
2022-11-14T17:16:28.641Z,80.40
2022-11-14T17:19:33.250Z,80.70
2022-11-14T17:22:37.758Z,81.40
2022-11-14T17:25:42.203Z,81.70
2022-11-14T17:28:46.283Z,82.10
2022-11-14T17:31:50.571Z,82.00
2022-11-14T17:34:55.122Z,82.20
2022-11-14T17:38:00.443Z,82.70
2022-11-14T17:41:06.172Z,83.00
2022-11-14T17:44:13.290Z,83.00
2022-11-14T17:47:17.738Z,83.30
2022-11-14T17:50:22.213Z,83.60
2022-11-14T17:53:26.431Z,83.70
2022-11-14T17:56:31.033Z,83.90
2022-11-14T17:59:36.513Z,84.00
2022-11-14T18:02:41.163Z,84.40
2022-11-14T18:05:48.248Z,84.60
2022-11-14T18:08:52.771Z,85.00
2022-11-14T18:11:57.156Z,85.80
2022-11-14T18:15:05.460Z,86.20
2022-11-14T18:18:09.614Z,86.30
2022-11-14T18:21:17.076Z,87.20
2022-11-14T18:24:21.937Z,87.70
2022-11-14T18:27:26.271Z,88.70
2022-11-14T18:30:45.518Z,88.70
2022-11-14T18:33:49.712Z,89.40
2022-11-14T18:36:54.546Z,88.20
2022-11-14T18:39:58.823Z,87.80
2022-11-14T18:43:03.701Z,88.40
2022-11-14T18:46:17.167Z,89.00
2022-11-14T18:49:21.766Z,89.10
2022-11-14T18:52:26.266Z,89.00
2022-11-14T18:55:30.231Z,89.00
2022-11-14T18:58:35.983Z,90.10
2022-11-14T19:01:40.456Z,90.50
2022-11-14T19:04:44.342Z,90.70
2022-11-14T19:07:52.120Z,91.00
2022-11-14T19:11:03.940Z,91.20
2022-11-14T19:14:08.106Z,91.30
2022-11-14T19:17:13.461Z,91.60
2022-11-14T19:20:17.794Z,91.60
2022-11-14T19:23:22.065Z,91.70
2022-11-14T19:26:27.360Z,91.80
2022-11-14T19:29:31.602Z,92.00
2022-11-14T19:32:36.019Z,92.00
2022-11-14T19:35:40.452Z,92.10
2022-11-14T19:38:44.590Z,92.10
2022-11-14T19:41:48.699Z,92.20
2022-11-14T19:44:53.290Z,91.90
2022-11-14T19:47:57.794Z,91.90
2022-11-14T19:51:07.990Z,92.00
2022-11-14T19:54:12.276Z,92.00
2022-11-14T19:57:16.550Z,92.00
2022-11-14T20:00:20.810Z,92.10
2022-11-14T20:03:27.015Z,92.00
2022-11-14T20:06:34.209Z,92.00
2022-11-14T20:09:39.349Z,92.10
2022-11-14T20:12:43.891Z,92.10
2022-11-14T20:15:48.187Z,92.10
2022-11-14T20:18:58.645Z,92.20
2022-11-14T20:22:10.182Z,92.10
2022-11-14T20:25:16.201Z,92.20
2022-11-14T20:28:20.020Z,92.30
2022-11-14T20:31:27.505Z,92.20
2022-11-14T20:34:32.173Z,92.30
2022-11-14T20:37:36.056Z,92.30
2022-11-14T20:40:43.178Z,92.30
2022-11-14T20:43:48.055Z,92.20
2022-11-14T20:46:51.941Z,92.20
2022-11-14T20:49:56.514Z,92.40
2022-11-14T20:53:00.830Z,92.30
2022-11-14T20:56:05.204Z,92.40
2022-11-14T20:59:09.370Z,92.40
2022-11-14T21:02:14.838Z,92.30
2022-11-14T21:05:19.054Z,92.30
2022-11-14T21:08:45.652Z,92.30
2022-11-14T21:11:48.643Z,92.30
2022-11-14T21:14:52.926Z,92.30
2022-11-14T21:18:00.291Z,92.40
2022-11-14T21:21:10.671Z,92.40
2022-11-14T21:24:14.961Z,92.50
2022-11-14T21:27:19.135Z,92.60
2022-11-14T21:30:23.539Z,92.70
2022-11-14T21:33:29.447Z,92.80
2022-11-14T21:36:49.160Z,92.80
2022-11-14T21:39:53.302Z,92.80
2022-11-14T21:42:57.511Z,92.90
2022-11-14T21:46:07.166Z,93.10
2022-11-14T21:49:11.049Z,93.20
2022-11-14T21:52:15.478Z,93.20
2022-11-14T21:55:22.482Z,93.30
2022-11-14T21:58:32.630Z,93.30
2022-11-14T22:01:55.484Z,93.50
2022-11-14T22:05:00.030Z,93.40
2022-11-14T22:08:04.302Z,93.40
2022-11-14T22:11:08.725Z,93.40
2022-11-14T22:14:12.947Z,93.50
2022-11-14T22:17:17.628Z,93.50
2022-11-14T22:20:23.306Z,93.50
2022-11-14T22:23:31.174Z,93.50
2022-11-14T22:26:39.755Z,93.70
2022-11-14T22:29:44.208Z,93.60
2022-11-14T22:32:51.230Z,93.50
2022-11-14T22:36:07.357Z,93.60
2022-11-14T22:39:11.290Z,93.60
2022-11-14T22:42:15.709Z,93.60
2022-11-14T22:45:20.261Z,93.80
2022-11-14T22:48:25.960Z,93.80
2022-11-14T22:51:32.859Z,93.80
2022-11-14T22:54:40.452Z,94.00
2022-11-14T22:57:47.846Z,94.00
2022-11-14T23:00:52.713Z,93.70
2022-11-14T23:04:02.435Z,93.80
2022-11-14T23:07:06.845Z,93.60
2022-11-14T23:10:11.379Z,93.60
2022-11-14T23:13:15.642Z,93.60
2022-11-14T23:16:25.854Z,93.70
2022-11-14T23:19:29.927Z,93.80
2022-11-14T23:22:34.507Z,93.60
2022-11-14T23:25:38.867Z,93.70
2022-11-14T23:28:43.937Z,93.80
2022-11-14T23:31:48.356Z,93.50
2022-11-14T23:34:52.482Z,93.70
2022-11-14T23:37:56.610Z,93.90
2022-11-14T23:41:01.924Z,93.80
2022-11-14T23:44:06.249Z,93.70
2022-11-14T23:47:13.742Z,93.60
2022-11-14T23:50:18.133Z,93.70
2022-11-14T23:53:22.383Z,93.60
2022-11-14T23:56:26.930Z,93.70
2022-11-14T23:59:31.100Z,93.60
